Home > Products > Valid Products > TAF

000
FTUS41 KCAR 272335
TAFBHB
TAF
KBHB 272335Z 2800/2824 21011KT 4SM BR BKN008
     FM280400 22011KT 1SM BR OVC003
     FM281600 21011KT P6SM BKN008
      AMD LTD TO CLD VIS AND WIND=



000
FTUS41 KCAR 272335
TAFHUL
TAF
KHUL 272335Z 2800/2824 21010KT P6SM BKN100
      TEMPO 2800/2803 3SM -TSRA BR BKN050CB
     FM281100 21009KT P6SM BKN035
      TEMPO 2820/2824 3SM -SHRA=



000
FTUS41 KCAR 272335
TAFCAR
TAF
KCAR 272335Z 2800/2824 21010KT P6SM OVC090
     FM280200 21009KT P6SM BKN030
     FM281500 23009KT P6SM SCT025 BKN050
      TEMPO 2818/2822 3SM -SHRA=



000
FTUS41 KCAR 272335
TAFBHB
TAF
KBHB 272335Z 2800/2824 21011KT 4SM BR BKN008
     FM280400 22011KT 1SM BR OVC003
     FM281600 21011KT P6SM BKN008
      AMD LTD TO CLD VIS AND WIND=



000
FTUS41 KCAR 272335
TAFHUL
TAF
KHUL 272335Z 2800/2824 21010KT P6SM BKN100
      TEMPO 2800/2803 3SM -TSRA BR BKN050CB
     FM281100 21009KT P6SM BKN035
      TEMPO 2820/2824 3SM -SHRA=



000
FTUS41 KCAR 272335
TAFCAR
TAF
KCAR 272335Z 2800/2824 21010KT P6SM OVC090
     FM280200 21009KT P6SM BKN030
     FM281500 23009KT P6SM SCT025 BKN050
      TEMPO 2818/2822 3SM -SHRA=



000
FTUS41 KCAR 272335
TAFPQI
TAF
KPQI 272335Z 2800/2824 21011KT P6SM OVC090
      TEMPO 2808/2812 BKN025
     FM281600 23008KT P6SM SCT025 BKN050
      TEMPO 2819/2823 3SM -SHRA
      AMD LTD TO CLD VIS AND WIND=



000
FTUS41 KCAR 272335
TAFBGR
TAF
KBGR 272335Z 2800/2824 19008KT P6SM BKN250
      TEMPO 2805/2809 3SM BR OVC007
     FM280900 20007KT 1SM BR OVC003
     FM281500 20009KT P6SM BKN050
     FM282000 22009KT 3SM -SHRA OVC050=



000
FTUS41 KCAR 272335
TAFBGR
TAF
KBGR 272335Z 2800/2824 19008KT P6SM BKN250
      TEMPO 2805/2809 3SM BR OVC007
     FM280900 20007KT 1SM BR OVC003
     FM281500 20009KT P6SM BKN050
     FM282000 22009KT 3SM -SHRA OVC050=



000
FTUS41 KCAR 272335
TAFPQI
TAF
KPQI 272335Z 2800/2824 21011KT P6SM OVC090
      TEMPO 2808/2812 BKN025
     FM281600 23008KT P6SM SCT025 BKN050
      TEMPO 2819/2823 3SM -SHRA
      AMD LTD TO CLD VIS AND WIND=



000
FTUS41 KCAR 272120 AAA
TAFPQI
TAF AMD
KPQI 272120Z 2721/2818 20012G20KT P6SM VCTS SCT025 BKN040CB
      TEMPO 2722/2723 32015G30KT 1SM -TSRA BKN040CB
     FM272300 21012KT 6SM -SHRA OVC035
     FM280100 21010KT P6SM BKN035
     FM280600 21007KT P6SM SCT006 BKN020
     FM281100 24012KT P6SM SCT025 BKN050
      AMD LTD TO CLD VIS AND WIND=



000
FTUS41 KCAR 272119 AAB
TAFCAR
TAF AMD
KCAR 272119Z 2721/2818 20010G20KT P6SM VCTS SCT020 BKN050CB
      TEMPO 2721/2723 32015G30KT 1SM -TSRA BKN040CB
     FM272300 21011KT 6SM -SHRA BKN030
     FM280100 21009KT P6SM BKN035
     FM280700 21008KT P6SM SCT006 BKN015
     FM281100 23010KT P6SM SCT020 BKN045=



000
FTUS41 KCAR 272043 AAA
TAFBHB
TAF AMD
KBHB 272043Z 2721/2818 18020G30KT P6SM SCT007 BKN120 WS020/23040KT
      TEMPO 2721/2723 BKN007
     FM280100 21010G20KT 3SM BR OVC200
     FM280400 22011KT 2SM BR OVC006
     FM280700 21010KT 1SM BR OVC002
     FM281200 21012KT 3SM BR OVC003
     FM281500 21015G25KT P6SM OVC007
      AMD LTD TO CLD VIS AND WIND=



000
FTUS41 KCAR 271746
TAFBHB
TAF
KBHB 271746Z 2718/2818 18020G30KT P6SM BKN250 WS020/23040KT
     FM280200 21010G20KT 3SM BR OVC200
     FM280400 22011KT 2SM BR OVC006
     FM280700 21010KT 1SM BR OVC002
     FM281200 21012KT 3SM BR OVC003
     FM281500 21015G25KT P6SM OVC007
      AMD LTD TO CLD VIS AND WIND=



000
FTUS41 KCAR 271746
TAFBGR
TAF
KBGR 271746Z 2718/2818 19010G20KT P6SM SCT120
     FM280000 19008KT P6SM BKN060
     FM280300 20010KT 3SM BR BKN045
     FM280600 20007KT 3/4SM BR SCT003 OVC007
     FM280900 20007KT 1/2SM FG OVC002
     FM281300 19010KT P6SM SCT010 BKN100=



000
FTUS41 KCAR 271746
TAFCAR
TAF
KCAR 271746Z 2718/2818 21010KT P6SM BKN070
     FM272000 20010G20KT P6SM VCTS SCT020 BKN050CB
     FM272300 21011KT 6SM -SHRA BKN030
     FM280100 21009KT P6SM BKN035
     FM280700 21008KT P6SM SCT006 BKN015
     FM281100 23010KT P6SM SCT020 BKN045=



000
FTUS41 KCAR 271746
TAFHUL
TAF
KHUL 271746Z 2718/2818 20011KT P6SM BKN100
     FM272100 21012KT P6SM VCTS SCT025 BKN045CB
     FM280000 20011KT P6SM -RA OVC045
     FM280500 21008KT 4SM BR SCT010 BKN020
     FM280800 20007KT 3SM BR OVC006
     FM281300 23010KT P6SM SCT007 BKN045=



000
FTUS41 KCAR 271746
TAFPQI
TAF
KPQI 271746Z 2718/2818 20010KT P6SM BKN070
     FM272000 20012KT P6SM VCTS SCT025 BKN040CB
     FM272300 21012KT 6SM -SHRA OVC035
     FM280100 21010KT P6SM BKN035
     FM280600 21007KT P6SM SCT006 BKN020
     FM281100 24012KT P6SM SCT025 BKN050
      AMD LTD TO CLD VIS AND WIND=



000
FTUS41 KCAR 271746
TAFCAR
TAF
KCAR 271746Z 2718/2818 21010KT P6SM BKN070
     FM272000 20010G20KT P6SM VCTS SCT020 BKN050CB
     FM272300 21011KT 6SM -SHRA BKN030
     FM280100 21009KT P6SM BKN035
     FM280700 21008KT P6SM SCT006 BKN015
     FM281100 23010KT P6SM SCT020 BKN045=



000
FTUS41 KCAR 271746
TAFBHB
TAF
KBHB 271746Z 2718/2818 18020G30KT P6SM BKN250 WS020/23040KT
     FM280200 21010G20KT 3SM BR OVC200
     FM280400 22011KT 2SM BR OVC006
     FM280700 21010KT 1SM BR OVC002
     FM281200 21012KT 3SM BR OVC003
     FM281500 21015G25KT P6SM OVC007
      AMD LTD TO CLD VIS AND WIND=



000
FTUS41 KCAR 271746
TAFPQI
TAF
KPQI 271746Z 2718/2818 20010KT P6SM BKN070
     FM272000 20012KT P6SM VCTS SCT025 BKN040CB
     FM272300 21012KT 6SM -SHRA OVC035
     FM280100 21010KT P6SM BKN035
     FM280600 21007KT P6SM SCT006 BKN020
     FM281100 24012KT P6SM SCT025 BKN050
      AMD LTD TO CLD VIS AND WIND=



000
FTUS41 KCAR 271746
TAFBGR
TAF
KBGR 271746Z 2718/2818 19010G20KT P6SM SCT120
     FM280000 19008KT P6SM BKN060
     FM280300 20010KT 3SM BR BKN045
     FM280600 20007KT 3/4SM BR SCT003 OVC007
     FM280900 20007KT 1/2SM FG OVC002
     FM281300 19010KT P6SM SCT010 BKN100=



000
FTUS41 KCAR 271746
TAFHUL
TAF
KHUL 271746Z 2718/2818 20011KT P6SM BKN100
     FM272100 21012KT P6SM VCTS SCT025 BKN045CB
     FM280000 20011KT P6SM -RA OVC045
     FM280500 21008KT 4SM BR SCT010 BKN020
     FM280800 20007KT 3SM BR OVC006
     FM281300 23010KT P6SM SCT007 BKN045=



000
FTUS41 KCAR 271616 AAB
TAFCAR
TAF AMD
KCAR 271616Z 2716/2812 21010KT P6SM BKN070
     FM272100 20010G20KT P6SM VCTS SCT020 BKN050CB
     FM272300 21011KT 6SM -SHRA BKN030
     FM280100 21009KT P6SM BKN035
     FM280600 21008KT P6SM BKN015=



000
FTUS41 KCAR 271616 AAB
TAFCAR
TAF AMD
KCAR 271616Z 2716/2812 21010KT P6SM BKN070
     FM272100 20010G20KT P6SM VCTS SCT020 BKN050CB
     FM272300 21011KT 6SM -SHRA BKN030
     FM280100 21009KT P6SM BKN035
     FM280600 21008KT P6SM BKN015=



000
FTUS41 KCAR 271120
TAFCAR
TAF
KCAR 271120Z 2712/2812 VRB03KT P6SM SCT250
     FM271600 20011KT 5SM -SHRA VCTS BKN050CB
     FM272200 21011KT 6SM -SHRA BKN040
     FM280100 21009KT P6SM BKN035
     FM280600 21008KT P6SM BKN015=



000
FTUS41 KCAR 271120
TAFBHB
TAF
KBHB 271120Z 2712/2812 21006KT P6SM SCT120
     FM272200 21012KT P6SM BKN050 WS020/23040KT
     FM280000 21011KT P6SM BKN025 WS020/23040KT
     FM280200 21011KT P6SM OVC020 WS020/23045KT
     FM280600 22011KT 2SM BR SCT008 BKN015
      AMD LTD TO CLD VIS AND WIND=



000
FTUS41 KCAR 271120
TAFHUL
TAF
KHUL 271120Z 2712/2812 20004KT P6SM FEW250
     FM271700 20011KT 5SM -SHRA VCTS BKN050CB
     FM280000 20011KT P6SM BKN035
     FM280200 20010KT P6SM BKN030
     FM280500 21008KT P6SM BKN020=



000
FTUS41 KCAR 271120
TAFBGR
TAF
KBGR 271120Z 2712/2812 19004KT P6SM BKN200
     FM271800 19011KT P6SM -SHRA VCTS BKN050CB
     FM280000 19008KT P6SM BKN060
     FM280400 20007KT 2SM BR BKN035
     FM281000 20007KT P6SM BKN010=



000
FTUS41 KCAR 271120
TAFCAR
TAF
KCAR 271120Z 2712/2812 VRB03KT P6SM SCT250
     FM271600 20011KT 5SM -SHRA VCTS BKN050CB
     FM272200 21011KT 6SM -SHRA BKN040
     FM280100 21009KT P6SM BKN035
     FM280600 21008KT P6SM BKN015=



000
FTUS41 KCAR 271120
TAFBHB
TAF
KBHB 271120Z 2712/2812 21006KT P6SM SCT120
     FM272200 21012KT P6SM BKN050 WS020/23040KT
     FM280000 21011KT P6SM BKN025 WS020/23040KT
     FM280200 21011KT P6SM OVC020 WS020/23045KT
     FM280600 22011KT 2SM BR SCT008 BKN015
      AMD LTD TO CLD VIS AND WIND=



000
FTUS41 KCAR 271120
TAFPQI
TAF
KPQI 271120Z 2712/2812 VRB03KT P6SM SCT250
     FM271600 20010KT 5SM -SHRA VCTS BKN050CB
     FM272100 20012KT 6SM -SHRA BKN040
     FM280100 21010KT P6SM BKN035
     FM280600 21007KT P6SM BKN020
      AMD LTD TO CLD VIS AND WIND=



000
FTUS41 KCAR 271120
TAFHUL
TAF
KHUL 271120Z 2712/2812 20004KT P6SM FEW250
     FM271700 20011KT 5SM -SHRA VCTS BKN050CB
     FM280000 20011KT P6SM BKN035
     FM280200 20010KT P6SM BKN030
     FM280500 21008KT P6SM BKN020=



000
FTUS41 KCAR 271120
TAFBGR
TAF
KBGR 271120Z 2712/2812 19004KT P6SM BKN200
     FM271800 19011KT P6SM -SHRA VCTS BKN050CB
     FM280000 19008KT P6SM BKN060
     FM280400 20007KT 2SM BR BKN035
     FM281000 20007KT P6SM BKN010=



000
FTUS41 KCAR 271120
TAFPQI
TAF
KPQI 271120Z 2712/2812 VRB03KT P6SM SCT250
     FM271600 20010KT 5SM -SHRA VCTS BKN050CB
     FM272100 20012KT 6SM -SHRA BKN040
     FM280100 21010KT P6SM BKN035
     FM280600 21007KT P6SM BKN020
      AMD LTD TO CLD VIS AND WIND=



000
FTUS41 KCAR 270533
TAFPQI
TAF
KPQI 270533Z 2706/2806 23005KT P6SM SCT100
     FM271600 20011KT P6SM -SHRA BKN045
     FM271800 20012G20KT P6SM -SHRA VCTS SCT030 BKN040CB
     FM280000 21010KT P6SM BKN035
     FM280200 21010KT P6SM BKN030
      AMD LTD TO CLD VIS AND WIND=



000
FTUS41 KCAR 270533
TAFCAR
TAF
KCAR 270533Z 2706/2806 24005KT P6SM SCT100
     FM271600 20011KT P6SM -SHRA BKN045
     FM271800 20012G20KT P6SM -SHRA VCTS SCT030 OVC040CB
     FM280100 21009KT P6SM BKN035
     FM280200 21008KT P6SM BKN030=



000
FTUS41 KCAR 270533
TAFBHB
TAF
KBHB 270533Z 2706/2806 22005KT P6SM FEW250
     FM270800 22006KT 5SM BR SCT250
     FM270900 22006KT 3SM BR SCT008
     FM271200 21007KT P6SM BKN050
     FM271600 20011KT P6SM BKN200
     FM272300 21012KT P6SM BKN150 WS020/23040KT
     FM280300 21011KT 5SM BR SCT008 BKN012 WS020/24045KT
      AMD LTD TO CLD VIS AND WIND=



000
FTUS41 KCAR 270533
TAFHUL
TAF
KHUL 270533Z 2706/2806 22005KT P6SM SCT250
     FM271500 20009KT P6SM -SHRA BKN050
     FM271800 20011G20KT P6SM -SHRA VCTS SCT030 BKN050CB
     FM280100 20011KT P6SM BKN030
     FM280300 20009KT P6SM SCT008 BKN012=



000
FTUS41 KCAR 270533
TAFBGR
TAF
KBGR 270533Z 2706/2806 20005KT P6SM FEW250
     FM271400 19007G18KT P6SM SCT050 BKN090
     FM280300 20007KT 6SM BR SCT008 BKN012=



000
FTUS41 KCAR 270454 AAA
TAFPQI
TAF AMD
KPQI 270454Z 2705/2724 24008KT 6SM -RA BKN035
     FM270600 24008KT P6SM SCT035
     FM271600 20010KT 3SM -SHRA BKN050
      TEMPO 2720/2724 2SM -TSRA BKN040CB
      AMD LTD TO CLD VIS AND WIND=



000
FTUS41 KCAR 270453 AAA
TAFCAR
TAF AMD
KCAR 270453Z 2705/2724 24010KT 5SM -RA BR BKN025 OVC035
     FM270600 20004KT P6SM FEW250
     FM271600 20010KT 3SM -SHRA BKN050
      TEMPO 2720/2724 2SM -TSRA BKN040CB=



000
FTUS41 KCAR 262336
TAFPQI
TAF
KPQI 262336Z 2700/2724 24008KT P6SM SCT250
     FM271600 20010KT 3SM -SHRA BKN050
      TEMPO 2720/2724 2SM -TSRA BKN040CB
      AMD LTD TO CLD VIS AND WIND=



000
FTUS41 KCAR 262336
TAFBGR
TAF
KBGR 262336Z 2700/2724 20006KT P6SM FEW250
     FM271200 19004KT P6SM BKN100
     FM271900 19012KT P6SM BKN050=



000
FTUS41 KCAR 262336
TAFCAR
TAF
KCAR 262336Z 2700/2724 24010KT P6SM SCT100
     FM270900 20004KT P6SM FEW250
     FM271600 20010KT 3SM -SHRA BKN050
      TEMPO 2720/2724 2SM -TSRA BKN040CB=



000
FTUS41 KCAR 262336
TAFBHB
TAF
KBHB 262336Z 2700/2724 22010KT P6SM FEW250
      TEMPO 2708/2712 4SM BR
     FM271200 21007KT P6SM BKN100
      AMD LTD TO CLD VIS AND WIND=



000
FTUS41 KCAR 262336
TAFHUL
TAF
KHUL 262336Z 2700/2724 24007KT P6SM FEW250
     FM271700 20010KT 3SM -SHRA BKN050
      TEMPO 2720/2724 2SM -TSRA BKN040CB=



000
FTUS41 KCAR 261721
TAFHUL
TAF
KHUL 261721Z 2618/2718 22010G22KT P6SM SCT025 BKN040
     FM261900 25010KT 6SM -SHRA VCTS SCT025CB BKN050
     FM262100 24008KT P6SM BKN050
     FM271700 20010KT 3SM -SHRA BKN035 OVC080=



000
FTUS41 KCAR 261721
TAFPQI
TAF
KPQI 261721Z 2618/2718 24009G20KT P6SM BKN020 OVC035
     FM261900 24015KT P6SM VCTS BKN020CB
     FM262200 25008KT P6SM SCT020
     FM271500 20009KT P6SM BKN120
     FM271600 20010KT 3SM -SHRA BKN035 OVC120
      AMD LTD TO CLD VIS AND WIND=



000
FTUS41 KCAR 261721
TAFBHB
TAF
KBHB 261721Z 2618/2718 19009KT P6SM SCT050
     FM262000 22010KT P6SM BKN035
     FM270000 20006KT P6SM FEW070
     FM271200 19006KT P6SM BKN090
      AMD LTD TO CLD VIS AND WIND=



000
FTUS41 KCAR 261721
TAFCAR
TAF
KCAR 261721Z 2618/2718 24009G20KT P6SM BKN020 OVC035
     FM261900 24015KT P6SM VCTS BKN020CB
     FM262200 25008KT P6SM SCT020
     FM271500 20009KT P6SM BKN120
     FM271600 20010KT 3SM -SHRA BKN035 OVC120=



000
FTUS41 KCAR 261721
TAFBGR
TAF
KBGR 261721Z 2618/2718 19009KT P6SM SCT050
     FM262000 22010KT P6SM VCTS BKN035CB
     FM270000 20006KT P6SM FEW070
     FM271200 19006KT P6SM BKN090=



000
FTUS41 KCAR 261459 AAC
TAFHUL
TAF AMD
KHUL 261459Z 2615/2712 21009KT P6SM SCT015 BKN120
     FM261700 23010KT P6SM VCSH BKN040
     FM262200 23010KT P6SM SCT070=



000
FTUS41 KCAR 261458 AAC
TAFBGR
TAF AMD
KBGR 261458Z 2615/2712 21008KT P6SM BKN120
      TEMPO 2615/2617 3SM BR
     FM270300 19004KT 3SM BR FEW005 SCT120=



000
FTUS41 KCAR 261330 AAB
TAFCAR
TAF AMD
KCAR 261330Z 2614/2712 22012KT P6SM OVC012
     FM261800 25013KT P6SM VCSH BKN040
     FM262300 24011KT P6SM SCT050=



000
FTUS41 KCAR 261313 AAC
TAFCAR
TAF AMD
KCAR 261313Z 2613/2712 20007KT P6SM OVC007
     FM261400 22012KT P6SM OVC020
     FM261800 25013KT P6SM VCSH BKN040
     FM262300 24011KT P6SM SCT050=



000
FTUS41 KCAR 261311 AAB
TAFBGR
TAF AMD
KBGR 261311Z 2613/2712 20009KT 5SM BR FEW010 OVC100
     FM261500 21008KT P6SM BKN070
     FM270300 19004KT 3SM BR FEW005 SCT120=



000
FTUS41 KCAR 261311 AAB
TAFHUL
TAF AMD
KHUL 261311Z 2613/2712 21009G16KT P6SM OVC007
     FM261400 21009KT P6SM OVC020
     FM261700 23010KT P6SM VCSH BKN040
     FM262200 23010KT P6SM SCT070=



000
FTUS41 KCAR 261236 AAA
TAFHUL
TAF AMD
KHUL 261236Z 2613/2712 20004KT P6SM OVC007
     FM261400 21009KT P6SM OVC020
     FM261700 23010KT P6SM VCSH BKN040
     FM262200 23010KT P6SM SCT070=



000
FTUS41 KCAR 261234 AAA
TAFBHB
TAF AMD
KBHB 261234Z 2613/2712 20009KT P6SM SCT004 BKN080
     FM261400 22011KT P6SM BKN070
     FM270400 22009KT 1SM BR FEW002 SCT150
     FM270700 19005KT 1/2SM FG BKN002
      AMD LTD TO CLD VIS AND WIND=



000
FTUS41 KCAR 261234 AAA
TAFBGR
TAF AMD
KBGR 261234Z 2613/2712 20009KT 3SM BR BKN004 OVC080
     FM261500 21008KT P6SM BKN070
     FM270300 19004KT 3SM BR FEW005 SCT120=



000
FTUS41 KCAR 261234 AAA
TAFBHB
TAF AMD
KBHB 261234Z 2613/2712 20009KT P6SM SCT004 BKN080
     FM261400 22011KT P6SM BKN070
     FM270400 22009KT 1SM BR FEW002 SCT150
     FM270700 19005KT 1/2SM FG BKN002
      AMD LTD TO CLD VIS AND WIND=



000
FTUS41 KCAR 261234 AAA
TAFBGR
TAF AMD
KBGR 261234Z 2613/2712 20009KT 3SM BR BKN004 OVC080
     FM261500 21008KT P6SM BKN070
     FM270300 19004KT 3SM BR FEW005 SCT120=



000
FTUS41 KCAR 261120
TAFPQI
TAF
KPQI 261120Z 2612/2712 20007KT 6SM BR OVC010
     FM261400 20008KT P6SM OVC020
     FM261600 22012KT P6SM VCSH BKN035
     FM262300 24010KT P6SM SCT050
      AMD LTD TO CLD VIS AND WIND=



000
FTUS41 KCAR 261120
TAFHUL
TAF
KHUL 261120Z 2612/2712 20004KT 5SM BR OVC007
     FM261400 21009KT P6SM OVC020
     FM261700 23010KT P6SM VCSH BKN040
     FM262200 23010KT P6SM SCT070=



000
FTUS41 KCAR 261120
TAFBHB
TAF
KBHB 261120Z 2612/2712 20009KT 4SM BR SCT004 BKN012
     FM261400 22011KT P6SM BKN070
     FM270400 22009KT 1SM BR FEW002 SCT150
     FM270700 19005KT 1/2SM FG BKN002
      AMD LTD TO CLD VIS AND WIND=



000
FTUS41 KCAR 261120
TAFBGR
TAF
KBGR 261120Z 2612/2712 20009KT P6SM OVC080
      TEMPO 2612/2613 5SM BR SCT005
     FM261500 21008KT P6SM BKN070
     FM270300 19004KT 3SM BR FEW005 SCT120=



000
FTUS41 KCAR 261120
TAFCAR
TAF
KCAR 261120Z 2612/2712 19005KT 3SM BR OVC003
     FM261300 19008KT P6SM OVC008
     FM261400 22012KT P6SM OVC020
     FM261800 25013KT P6SM VCSH BKN040
     FM262300 24011KT P6SM SCT050=



000
FTUS41 KCAR 260902 AAA
TAFCAR
TAF AMD
KCAR 260902Z 2609/2706 19005KT 3SM -RA BR OVC003
     FM261200 19008KT P6SM OVC010
     FM261400 22012KT P6SM OVC025
     FM261800 25013KT P6SM VCSH BKN040
     FM262300 24011KT P6SM SCT050=



000
FTUS41 KCAR 260520
TAFBHB
TAF
KBHB 260520Z 2606/2706 20009KT 6SM -SHRA OVC060
     FM260900 20006KT 2SM -SHRA BR OVC035
     FM261000 21007KT 2SM BR OVC050
     FM261200 22011KT P6SM BKN060
     FM270400 22009KT 1SM BR FEW002 SCT150
      AMD LTD TO CLD VIS AND WIND=



000
FTUS41 KCAR 260520
TAFBGR
TAF
KBGR 260520Z 2606/2706 18007KT 5SM -SHRA BR OVC040
     FM261000 19006KT 3SM BR BKN035
     FM261200 21008KT P6SM BKN070
     FM270300 19004KT 3SM BR FEW005 SCT120=



000
FTUS41 KCAR 260520
TAFBGR
TAF
KBGR 260520Z 2606/2706 18007KT 5SM -SHRA BR OVC040
     FM261000 19006KT 3SM BR BKN035
     FM261200 21008KT P6SM BKN070
     FM270300 19004KT 3SM BR FEW005 SCT120=



000
FTUS41 KCAR 260520
TAFPQI
TAF
KPQI 260520Z 2606/2706 20007KT P6SM -SHRA OVC040
     FM260800 19006KT P6SM -SHRA OVC025
     FM261100 19008KT 3SM -SHRA OVC010
     FM261200 20008KT P6SM OVC010
     FM261600 22012KT P6SM VCSH BKN035
     FM262300 24010KT P6SM SCT050
      AMD LTD TO CLD VIS AND WIND=



000
FTUS41 KCAR 260520
TAFHUL
TAF
KHUL 260520Z 2606/2706 20004KT P6SM -SHRA OVC040
     FM260800 19007KT P6SM -SHRA OVC025
     FM261100 20009KT P6SM -SHRA OVC010
     FM261300 21009KT P6SM OVC020
     FM261700 23010KT P6SM VCSH BKN040
     FM262200 23010KT P6SM SCT070=



000
FTUS41 KCAR 260520
TAFCAR
TAF
KCAR 260520Z 2606/2706 19005KT P6SM -SHRA OVC040
     FM260800 16005KT P6SM -SHRA OVC025
     FM261200 19008KT P6SM OVC010
     FM261400 22012KT P6SM OVC025
     FM261800 25013KT P6SM VCSH BKN040
     FM262300 24011KT P6SM SCT050=



000
FTUS41 KCAR 260520
TAFCAR
TAF
KCAR 260520Z 2606/2706 19005KT P6SM -SHRA OVC040
     FM260800 16005KT P6SM -SHRA OVC025
     FM261200 19008KT P6SM OVC010
     FM261400 22012KT P6SM OVC025
     FM261800 25013KT P6SM VCSH BKN040
     FM262300 24011KT P6SM SCT050=



000
FTUS41 KCAR 260520
TAFHUL
TAF
KHUL 260520Z 2606/2706 20004KT P6SM -SHRA OVC040
     FM260800 19007KT P6SM -SHRA OVC025
     FM261100 20009KT P6SM -SHRA OVC010
     FM261300 21009KT P6SM OVC020
     FM261700 23010KT P6SM VCSH BKN040
     FM262200 23010KT P6SM SCT070=



000
FTUS41 KCAR 260520
TAFPQI
TAF
KPQI 260520Z 2606/2706 20007KT P6SM -SHRA OVC040
     FM260800 19006KT P6SM -SHRA OVC025
     FM261100 19008KT 3SM -SHRA OVC010
     FM261200 20008KT P6SM OVC010
     FM261600 22012KT P6SM VCSH BKN035
     FM262300 24010KT P6SM SCT050
      AMD LTD TO CLD VIS AND WIND=



000
FTUS41 KCAR 260520
TAFBHB
TAF
KBHB 260520Z 2606/2706 20009KT 6SM -SHRA OVC060
     FM260900 20006KT 2SM -SHRA BR OVC035
     FM261000 21007KT 2SM BR OVC050
     FM261200 22011KT P6SM BKN060
     FM270400 22009KT 1SM BR FEW002 SCT150
      AMD LTD TO CLD VIS AND WIND=



000
FTUS41 KCAR 260357 AAA
TAFBGR
TAF AMD
KBGR 260357Z 2604/2624 19006KT 5SM -SHRA BR OVC050
     FM260500 18007KT 3SM -SHRA OVC015
     FM260600 18007KT 2SM -SHRA BR OVC008
     FM261200 21008KT P6SM BKN015
     FM261600 21010KT P6SM BKN050=



000
FTUS41 KCAR 260357 AAA
TAFBGR
TAF AMD
KBGR 260357Z 2604/2624 19006KT 5SM -SHRA BR OVC050
     FM260500 18007KT 3SM -SHRA OVC015
     FM260600 18007KT 2SM -SHRA BR OVC008
     FM261200 21008KT P6SM BKN015
     FM261600 21010KT P6SM BKN050=



000
FTUS41 KCAR 252323
TAFBGR
TAF
KBGR 252323Z 2600/2624 22006KT P6SM OVC100
     FM260500 18007KT 3SM -SHRA OVC015
     FM260600 18007KT 2SM -SHRA BR OVC008
     FM261200 21008KT P6SM BKN015
     FM261600 21010KT P6SM BKN050=



000
FTUS41 KCAR 252323
TAFPQI
TAF
KPQI 252323Z 2600/2624 25010KT P6SM BKN100
     FM260400 21005KT 3SM -SHRA BKN090
     FM260600 19005KT 2SM -SHRA OVC015
     FM261100 21011KT P6SM BKN008
      TEMPO 2615/2618 BKN020
     FM261800 25012KT P6SM BKN050
      AMD LTD TO CLD VIS AND WIND=



000
FTUS41 KCAR 252323
TAFCAR
TAF
KCAR 252323Z 2600/2624 25010KT P6SM BKN120
     FM260400 21005KT 3SM -SHRA BKN090
     FM260600 19005KT 2SM -SHRA OVC015
     FM261200 20010KT 3SM -SHRA OVC008
     FM261400 22012KT P6SM BKN008
      TEMPO 2614/2618 BKN020
     FM261800 25013KT P6SM BKN050=



000
FTUS41 KCAR 252323
TAFHUL
TAF
KHUL 252323Z 2600/2624 24008KT P6SM BKN100
     FM260400 21004KT 3SM -SHRA OVC050
     FM260600 20005KT 2SM -SHRA OVC015
     FM261000 19009KT 3SM -SHRA OVC008
      TEMPO 2615/2618 BKN020
     FM261800 24010KT P6SM BKN050=



000
FTUS41 KCAR 252323
TAFBHB
TAF
KBHB 252323Z 2600/2624 22009KT P6SM OVC100
     FM260500 20009KT 3SM -SHRA OVC015
     FM260600 20009KT 2SM -SHRA BR OVC008
     FM261200 22011KT P6SM BKN015
     FM261600 21011KT P6SM BKN050
      AMD LTD TO CLD VIS AND WIND=



000
FTUS41 KCAR 251754 AAA
TAFPQI
TAF AMD
KPQI 251754Z 2518/2618 25010G22KT P6SM SCT250
     FM252200 24008KT P6SM SCT250
     FM260400 21005KT 3SM -SHRA BKN050
     FM260500 19005KT 2SM -SHRA BKN045
     FM261000 17007KT 3SM -SHRA OVC008
     FM261400 21011KT P6SM BKN015
      AMD LTD TO CLD VIS AND WIND=



000
FTUS41 KCAR 251754 AAB
TAFCAR
TAF AMD
KCAR 251754Z 2518/2618 25012G22KT P6SM BKN250
     FM252300 24007KT P6SM FEW250
     FM260400 21005KT 3SM -SHRA BKN100
     FM260500 19005KT 2SM -SHRA BKN045
     FM261200 19008KT 3SM -SHRA OVC008
     FM261400 22012KT P6SM BKN015=



000
FTUS41 KCAR 251754 AAB
TAFCAR
TAF AMD
KCAR 251754Z 2518/2618 25012G22KT P6SM BKN250
     FM252300 24007KT P6SM FEW250
     FM260400 21005KT 3SM -SHRA BKN100
     FM260500 19005KT 2SM -SHRA BKN045
     FM261200 19008KT 3SM -SHRA OVC008
     FM261400 22012KT P6SM BKN015=



000
FTUS41 KCAR 251753 AAA
TAFHUL
TAF AMD
KHUL 251753Z 2518/2618 22011G25KT P6SM SCT250
     FM252200 25007KT P6SM SCT250
     FM260400 21004KT 3SM -SHRA OVC050
     FM260500 20005KT 2SM -SHRA OVC025
     FM261000 19009KT 3SM -SHRA OVC008
     FM261200 21009KT 3SM -SHRA OVC008
     FM261300 21009KT P6SM BKN008=



000
FTUS41 KCAR 251752 AAA
TAFBHB
TAF AMD
KBHB 251752Z 2518/2618 22009KT P6SM SCT250
     FM260200 21008KT P6SM OVC045
     FM260300 21008KT P6SM OVC040
     FM260500 20009KT 3SM -SHRA OVC008
     FM260800 20006KT 3SM -SHRA OVC005
     FM260900 20006KT 2SM BR OVC006
     FM261200 22011KT P6SM BKN015
      AMD LTD TO CLD VIS AND WIND=



000
FTUS41 KCAR 251751 AAA
TAFBGR
TAF AMD
KBGR 251751Z 2518/2618 25010KT P6SM BKN250
     FM260000 22006KT P6SM OVC050
     FM260200 19005KT P6SM OVC045
     FM260400 18006KT P6SM OVC025
     FM260500 18007KT 3SM -SHRA OVC008
     FM260900 19005KT 2SM BR BKN008
     FM261200 21008KT P6SM BKN008=



000
FTUS41 KCAR 251751 AAA
TAFBGR
TAF AMD
KBGR 251751Z 2518/2618 25010KT P6SM BKN250
     FM260000 22006KT P6SM OVC050
     FM260200 19005KT P6SM OVC045
     FM260400 18006KT P6SM OVC025
     FM260500 18007KT 3SM -SHRA OVC008
     FM260900 19005KT 2SM BR BKN008
     FM261200 21008KT P6SM BKN008=



000
FTUS41 KCAR 251746
TAFPQI
TAF
KPQI 251746Z 2518/2618 25012KT P6SM SCT250
     FM252200 24008KT P6SM SCT250
     FM260400 21005KT 3SM -SHRA BKN050
     FM260500 19005KT 2SM -SHRA BKN045
     FM261000 17007KT 3SM -SHRA OVC008
     FM261400 21011KT P6SM BKN015
      AMD LTD TO CLD VIS AND WIND=



000
FTUS41 KCAR 251746
TAFCAR
TAF
KCAR 251746Z 2518/2618 25012KT P6SM BKN250
     FM252300 24007KT P6SM FEW250
     FM260400 21005KT 3SM -SHRA BKN100
     FM260500 19005KT 2SM -SHRA BKN045
     FM261200 19008KT 3SM -SHRA OVC008
     FM261400 22012KT P6SM BKN015=



000
FTUS41 KCAR 251746
TAFBGR
TAF
KBGR 251746Z 2518/2618 25010KT P6SM BKN250
     FM260000 22006KT P6SM OVC050
     FM260200 19005KT P6SM OVC045
     FM260400 18006KT P6SM OVC025
     FM260500 18007KT 3SM -SHRA OVC008
     FM260900 19005KT P6SM BKN008
     FM261200 21008KT P6SM BKN008=



000
FTUS41 KCAR 251746
TAFHUL
TAF
KHUL 251746Z 2518/2618 25011KT P6SM SCT250
     FM252200 25007KT P6SM SCT250
     FM260400 21004KT 3SM -SHRA OVC050
     FM260500 20005KT 2SM -SHRA OVC025
     FM261000 19009KT 3SM -SHRA OVC008
     FM261200 21009KT 3SM -SHRA OVC008
     FM261300 21009KT P6SM BKN008=



000
FTUS41 KCAR 251746
TAFBHB
TAF
KBHB 251746Z 2518/2618 22009KT P6SM SCT250
     FM260200 21008KT P6SM OVC045
     FM260300 21008KT P6SM OVC040
     FM260500 20009KT 3SM -SHRA OVC008
     FM260800 20006KT 3SM -SHRA OVC005
     FM260900 20006KT P6SM OVC008
     FM261200 22011KT P6SM BKN015
      AMD LTD TO CLD VIS AND WIND=



000
FTUS41 KCAR 251121
TAFPQI
TAF
KPQI 251121Z 2512/2612 24006KT P6SM BKN100
     FM251600 25011G18KT P6SM SCT080 BKN250
     FM252300 24007KT P6SM BKN080
     FM260400 19006KT P6SM -SHRA OVC060
     FM260600 17006KT P6SM -SHRA OVC025
     FM260700 17006KT 5SM -SHRA OVC015
      AMD LTD TO CLD VIS AND WIND=



000
FTUS41 KCAR 251121
TAFHUL
TAF
KHUL 251121Z 2512/2612 23006KT P6SM BKN250
     FM251600 25010G18KT P6SM BKN250
     FM252300 24006KT P6SM SCT070 BKN250
     FM260400 20006KT P6SM -SHRA OVC050
     FM260600 19006KT P6SM -SHRA OVC015=



000
FTUS41 KCAR 251121
TAFBHB
TAF
KBHB 251121Z 2512/2612 24008KT P6SM SCT180 BKN250
     FM260000 21009KT P6SM OVC020
     FM260300 21009KT 3SM -SHRA BR OVC011
      AMD LTD TO CLD VIS AND WIND=



000
FTUS41 KCAR 251121
TAFBGR
TAF
KBGR 251121Z 2512/2612 23006KT P6SM SCT180 BKN250
     FM251700 25010G18KT P6SM SCT070 BKN250
     FM260200 20007KT P6SM OVC020
     FM260400 18007KT 5SM -SHRA BR OVC015=



000
FTUS41 KCAR 251121
TAFCAR
TAF
KCAR 251121Z 2512/2612 24004KT P6SM BKN100
     FM251500 25011G18KT P6SM SCT080 BKN250
     FM260300 19005KT P6SM -SHRA OVC060
     FM260600 18005KT P6SM -SHRA OVC025
     FM260700 18005KT 5SM -SHRA OVC015=



000
FTUS41 KCAR 251121
TAFBHB
TAF
KBHB 251121Z 2512/2612 24008KT P6SM SCT180 BKN250
     FM260000 21009KT P6SM OVC020
     FM260300 21009KT 3SM -SHRA BR OVC011
      AMD LTD TO CLD VIS AND WIND=



000
FTUS41 KCAR 251121
TAFBGR
TAF
KBGR 251121Z 2512/2612 23006KT P6SM SCT180 BKN250
     FM251700 25010G18KT P6SM SCT070 BKN250
     FM260200 20007KT P6SM OVC020
     FM260400 18007KT 5SM -SHRA BR OVC015=



000
FTUS41 KCAR 251121
TAFPQI
TAF
KPQI 251121Z 2512/2612 24006KT P6SM BKN100
     FM251600 25011G18KT P6SM SCT080 BKN250
     FM252300 24007KT P6SM BKN080
     FM260400 19006KT P6SM -SHRA OVC060
     FM260600 17006KT P6SM -SHRA OVC025
     FM260700 17006KT 5SM -SHRA OVC015
      AMD LTD TO CLD VIS AND WIND=



000
FTUS41 KCAR 251121
TAFCAR
TAF
KCAR 251121Z 2512/2612 24004KT P6SM BKN100
     FM251500 25011G18KT P6SM SCT080 BKN250
     FM260300 19005KT P6SM -SHRA OVC060
     FM260600 18005KT P6SM -SHRA OVC025
     FM260700 18005KT 5SM -SHRA OVC015=



000
FTUS41 KCAR 251121
TAFHUL
TAF
KHUL 251121Z 2512/2612 23006KT P6SM BKN250
     FM251600 25010G18KT P6SM BKN250
     FM252300 24006KT P6SM SCT070 BKN250
     FM260400 20006KT P6SM -SHRA OVC050
     FM260600 19006KT P6SM -SHRA OVC015=



000
FTUS41 KCAR 250532
TAFCAR
TAF
KCAR 250532Z 2506/2606 22004KT P6SM SCT080 BKN250
     FM251600 24012G21KT P6SM BKN250
     FM252300 24009KT P6SM BKN250
     FM260400 20005KT 6SM -SHRA OVC050=



000
FTUS41 KCAR 250532
TAFHUL
TAF
KHUL 250532Z 2506/2606 00000KT P6SM SCT250
     FM251200 24006KT P6SM BKN250
     FM251600 25010G18KT P6SM BKN250
     FM260100 23008KT P6SM BKN250
     FM260400 20007KT 6SM -SHRA OVC050=



000
FTUS41 KCAR 250532
TAFBHB
TAF
KBHB 250532Z 2506/2606 23005KT P6SM SCT100 BKN250
     FM251500 22009KT P6SM BKN250
     FM260200 21008KT P6SM VCSH OVC030
     FM260400 21007KT 5SM -SHRA BR OVC015
      AMD LTD TO CLD VIS AND WIND=



000
FTUS41 KCAR 250532
TAFPQI
TAF
KPQI 250532Z 2506/2606 30005KT P6SM SCT080 BKN250
     FM251400 24010G18KT P6SM BKN250
     FM260000 24006KT P6SM BKN250
     FM260400 20006KT 6SM -SHRA OVC050
      AMD LTD TO CLD VIS AND WIND=



000
FTUS41 KCAR 250532
TAFBGR
TAF
KBGR 250532Z 2506/2606 20005KT P6SM SCT100 BKN250
     FM251300 24008G18KT P6SM BKN250
     FM260100 21007KT P6SM VCSH SCT020 OVC040
     FM260300 20006KT 5SM -SHRA BR OVC020=



000
FTUS41 KCAR 250220 AAB
TAFBGR
TAF AMD
KBGR 250220Z 2502/2524 25005KT P6SM BKN080
      TEMPO 2502/2503 31020G30KT -SHRA
     FM250800 VRB03KT P6SM SCT090
     FM251200 23006KT P6SM FEW100
     FM251600 24010G18KT P6SM FEW100
     FM252200 21008KT P6SM BKN045=



000
FTUS41 KCAR 250220 AAB
TAFPQI
TAF AMD
KPQI 250220Z 2502/2524 26004KT P6SM SCT080
     FM250500 VRB02KT P6SM BKN060
     FM251100 24006KT P6SM BKN070
     FM251600 26010G18KT P6SM SCT080
      AMD LTD TO CLD VIS AND WIND=



    US Dept of Commerce
    National Oceanic and Atmospheric Administration
    National Weather Service
    1325 East West Highway
    Silver Spring, MD 20910
    Page Author: NWS Internet Services Team
Disclaimer
Information Quality
Credits
Glossary
Privacy Policy
Freedom of Information Act (FOIA)
About Us
Career Opportunities